Terminal Aerodrome Forecast
Issued by NWS

Home | Current Version | Previous Version | Text Only | Print | Product List | Glossary On
Versions: 1 2 3 4 5 6 7 8 9 10 11 12 13 14 15 16 17 18
000
FTUS45 KABQ 032300
TAFGUP
TAF
KGUP 032330Z 0400/0424 23012KT P6SM VCTS BKN070CB BKN100
      TEMPO 0401/0403 -SHRA OVC070
     FM040300 VRB03KT P6SM VCSH BKN060
     FM041600 23007KT P6SM FEW060
     FM041800 22011G18KT P6SM VCTS BKN080CB=

USA.gov is the U.S. government's official web portal to all federal, state and local government web resources and services.